createdAt,value
2019-05-14T00:01:11.758Z,69.20
2019-05-14T00:06:13.702Z,69.04
2019-05-14T00:11:16.428Z,69.61
2019-05-14T00:16:21.658Z,69.84
2019-05-14T00:21:23.785Z,69.92
2019-05-14T00:26:26.506Z,70.04
2019-05-14T00:31:29.239Z,70.09
2019-05-14T00:36:32.034Z,70.05
2019-05-14T00:41:34.832Z,70.64
2019-05-14T00:46:40.947Z,70.75
2019-05-14T00:51:44.563Z,70.81
2019-05-14T00:56:47.350Z,70.69
2019-05-14T01:01:51.621Z,70.47
2019-05-14T01:06:54.554Z,70.74
2019-05-14T01:11:57.354Z,70.54
2019-05-14T01:17:02.008Z,70.39
2019-05-14T01:22:04.864Z,70.26
2019-05-14T01:27:07.576Z,70.14
2019-05-14T01:32:11.664Z,70.14
2019-05-14T01:37:14.533Z,69.89
2019-05-14T01:42:17.361Z,70.08
2019-05-14T01:47:21.385Z,70.19
2019-05-14T01:52:24.887Z,70.27
2019-05-14T01:57:27.692Z,70.28
2019-05-14T02:02:31.315Z,70.44
2019-05-14T02:07:34.230Z,70.74
2019-05-14T02:12:36.934Z,70.86
2019-05-14T02:17:41.373Z,71.06
2019-05-14T02:22:44.268Z,71.59
2019-05-14T02:27:46.967Z,71.84
2019-05-14T02:32:49.979Z,71.71
2019-05-14T02:37:52.892Z,71.54
2019-05-14T02:42:59.024Z,72.02
2019-05-14T02:48:00.685Z,71.67
2019-05-14T02:53:03.660Z,71.15
2019-05-14T02:58:09.744Z,71.10
2019-05-14T03:03:11.005Z,70.92
2019-05-14T03:08:13.754Z,70.77
2019-05-14T03:13:16.493Z,70.55
2019-05-14T03:18:21.116Z,70.24
2019-05-14T03:23:23.838Z,70.36
2019-05-14T03:28:30.086Z,70.54
2019-05-14T03:33:33.552Z,70.31
2019-05-14T03:38:39.443Z,70.75
2019-05-14T03:43:40.907Z,70.78
2019-05-14T03:48:43.623Z,70.96
2019-05-14T03:53:59.977Z,70.83
2019-05-14T03:58:50.967Z,70.84
2019-05-14T04:03:53.900Z,70.70
2019-05-14T04:09:00.543Z,70.75
2019-05-14T04:14:04.114Z,70.73
2019-05-14T04:19:11.400Z,70.53
2019-05-14T04:24:20.035Z,70.41
2019-05-14T04:29:30.293Z,70.31
2019-05-14T04:34:32.778Z,70.08
2019-05-14T04:39:35.592Z,69.81
2019-05-14T04:44:40.569Z,69.41
2019-05-14T04:49:45.335Z,69.35
2019-05-14T04:54:49.960Z,69.53
2019-05-14T04:59:52.976Z,69.66
2019-05-14T05:04:55.717Z,69.74
2019-05-14T05:09:59.546Z,69.50
2019-05-14T05:15:02.675Z,69.33
2019-05-14T05:20:06.298Z,69.05
2019-05-14T05:25:09.114Z,68.34
2019-05-14T05:30:11.959Z,67.87
2019-05-14T05:35:14.928Z,67.10
2019-05-14T05:40:19.750Z,66.70
2019-05-14T05:45:22.257Z,67.91
2019-05-14T05:50:24.963Z,68.13
2019-05-14T05:55:28.778Z,68.65
2019-05-14T06:00:35.829Z,69.36
2019-05-14T06:05:39.070Z,69.02
2019-05-14T06:10:41.977Z,67.59
2019-05-14T06:15:48.675Z,66.83
2019-05-14T06:20:49.590Z,66.61
2019-05-14T06:25:52.407Z,66.32
2019-05-14T06:30:55.175Z,64.79
2019-05-14T06:35:59.137Z,63.76
2019-05-14T06:41:02.221Z,63.69
2019-05-14T06:46:04.953Z,63.55
2019-05-14T06:51:08.824Z,63.08
2019-05-14T06:56:11.791Z,62.50
2019-05-14T07:01:14.511Z,61.72
2019-05-14T07:06:18.669Z,62.43
2019-05-14T07:11:21.666Z,61.69
2019-05-14T07:16:24.398Z,62.81
2019-05-14T07:21:29.181Z,61.81
2019-05-14T07:26:31.779Z,60.70
2019-05-14T07:31:34.495Z,60.23
2019-05-14T07:36:38.721Z,57.46
2019-05-14T07:41:41.796Z,57.02
2019-05-14T07:46:45.145Z,56.05
2019-05-14T07:51:48.278Z,54.76
2019-05-14T07:56:53.005Z,51.58
2019-05-14T08:01:55.735Z,51.44
2019-05-14T08:06:58.494Z,51.90
2019-05-14T08:12:01.210Z,50.80
2019-05-14T08:17:03.974Z,49.98
2019-05-14T08:22:09.155Z,49.58
2019-05-14T08:27:11.311Z,48.92
2019-05-14T08:32:14.026Z,47.85
2019-05-14T08:37:18.904Z,47.37
2019-05-14T08:42:21.404Z,47.17
2019-05-14T08:47:24.179Z,46.39
2019-05-14T08:52:28.860Z,45.37
2019-05-14T08:57:31.645Z,44.41
2019-05-14T09:02:35.069Z,44.96
2019-05-14T09:07:38.460Z,44.66
2019-05-14T09:12:42.348Z,44.09
2019-05-14T09:17:48.126Z,45.10
2019-05-14T09:22:51.190Z,44.10
2019-05-14T09:27:54.554Z,43.00
2019-05-14T09:32:59.383Z,42.56
2019-05-14T09:38:03.372Z,42.86
2019-05-14T09:43:09.046Z,42.00
2019-05-14T09:48:12.274Z,42.69
2019-05-14T09:53:18.020Z,41.59
2019-05-14T09:58:21.591Z,41.98
2019-05-14T10:03:25.441Z,42.24
2019-05-14T10:08:29.072Z,42.74
2019-05-14T10:13:32.600Z,42.24
2019-05-14T10:18:37.876Z,41.44
2019-05-14T10:23:40.456Z,40.63
2019-05-14T10:28:43.678Z,42.03
2019-05-14T10:33:48.531Z,41.77
2019-05-14T10:38:52.154Z,41.37
2019-05-14T10:43:55.345Z,41.70
2019-05-14T10:49:03.550Z,41.53
2019-05-14T10:54:20.529Z,40.93
2019-05-14T10:59:09.629Z,39.03
2019-05-14T11:04:12.490Z,36.82
2019-05-14T11:09:17.925Z,36.36
2019-05-14T11:14:21.490Z,37.03
2019-05-14T11:19:24.949Z,36.73
2019-05-14T11:24:29.534Z,34.88
2019-05-14T11:29:32.532Z,36.34
2019-05-14T11:34:35.266Z,36.82
2019-05-14T11:39:38.768Z,37.60
2019-05-14T11:44:42.615Z,37.28
2019-05-14T11:49:49.002Z,35.37
2019-05-14T11:54:52.596Z,35.13
2019-05-14T11:59:58.082Z,35.35
2019-05-14T12:05:01.586Z,35.94
2019-05-14T12:10:08.843Z,35.77
2019-05-14T12:15:11.266Z,36.40
2019-05-14T12:20:14.396Z,37.77
2019-05-14T12:25:18.820Z,36.61
2019-05-14T12:30:21.838Z,35.70
2019-05-14T12:35:24.545Z,35.75
2019-05-14T12:40:28.839Z,35.71
2019-05-14T12:45:32.021Z,35.73
2019-05-14T12:50:34.869Z,34.22
2019-05-14T12:55:39.968Z,34.47
2019-05-14T13:00:42.289Z,33.94
2019-05-14T13:05:45.032Z,36.55
2019-05-14T13:10:49.135Z,35.77
2019-05-14T13:15:52.170Z,35.02
2019-05-14T13:20:54.908Z,35.28
2019-05-14T13:25:59.017Z,35.74
2019-05-14T13:31:02.123Z,36.42
2019-05-14T13:36:04.904Z,35.73
2019-05-14T13:41:08.641Z,34.93
2019-05-14T13:46:14.947Z,36.74
2019-05-14T13:51:16.203Z,34.58
2019-05-14T13:56:19.140Z,34.17
2019-05-14T14:01:21.977Z,33.28
2019-05-14T14:06:24.706Z,33.56
2019-05-14T14:11:28.665Z,34.73
2019-05-14T14:16:32.112Z,33.35
2019-05-14T14:21:34.868Z,33.46
2019-05-14T14:26:39.392Z,32.10
2019-05-14T14:31:42.345Z,32.50
2019-05-14T14:36:45.109Z,33.33
2019-05-14T14:41:48.901Z,32.53
2019-05-14T14:46:51.846Z,32.87
2019-05-14T14:51:54.588Z,32.17
2019-05-14T14:57:09.782Z,31.55
2019-05-14T15:02:12.567Z,31.73
2019-05-14T15:07:20.144Z,32.09
2019-05-14T15:12:29.106Z,31.43
2019-05-14T15:17:35.107Z,31.65
2019-05-14T15:22:39.055Z,31.66
2019-05-14T15:27:43.784Z,32.01
2019-05-14T15:32:51.533Z,31.41
2019-05-14T15:37:58.941Z,31.87
2019-05-14T15:43:02.543Z,30.81
2019-05-14T15:48:08.981Z,32.19
2019-05-14T15:53:11.873Z,33.26
2019-05-14T15:58:20.824Z,32.34
2019-05-14T16:03:23.130Z,31.70
2019-05-14T16:08:25.916Z,33.31
2019-05-14T16:13:28.689Z,33.04
2019-05-14T16:18:31.495Z,33.77
2019-05-14T16:23:34.311Z,33.11
2019-05-14T16:28:39.536Z,32.05
2019-05-14T16:33:41.674Z,32.53
2019-05-14T16:38:44.404Z,32.44
2019-05-14T16:43:49.427Z,31.93
2019-05-14T16:48:51.995Z,32.86
2019-05-14T16:53:54.754Z,32.93
2019-05-14T16:58:58.311Z,34.11
2019-05-14T17:04:01.218Z,34.24
2019-05-14T17:09:08.841Z,34.69
2019-05-14T17:14:11.226Z,34.94
2019-05-14T17:19:14.151Z,34.77
2019-05-14T17:24:19.769Z,34.94
2019-05-14T17:29:21.626Z,35.29
2019-05-14T17:34:24.359Z,34.64
2019-05-14T17:39:27.187Z,34.95
2019-05-14T17:44:29.929Z,35.42
2019-05-14T17:49:32.677Z,35.79
2019-05-14T17:54:35.414Z,35.57
2019-05-14T17:59:39.066Z,35.29
2019-05-14T18:04:43.197Z,35.51
2019-05-14T18:09:46.080Z,35.74
2019-05-14T18:14:48.893Z,36.53
2019-05-14T18:19:51.650Z,36.49
2019-05-14T18:24:54.433Z,36.38
2019-05-14T18:29:59.293Z,35.68
2019-05-14T18:35:05.753Z,35.94
2019-05-14T18:40:10.574Z,36.80
2019-05-14T18:45:15.404Z,37.44
2019-05-14T18:50:19.751Z,38.20
2019-05-14T18:55:23.372Z,39.09
2019-05-14T19:00:29.483Z,39.39
2019-05-14T19:05:32.542Z,39.66
2019-05-14T19:10:39.033Z,40.03
2019-05-14T19:15:42.201Z,40.38
2019-05-14T19:20:48.422Z,41.07
2019-05-14T19:25:51.743Z,41.21
2019-05-14T19:30:56.029Z,41.17
2019-05-14T19:35:59.921Z,41.24
2019-05-14T19:41:04.826Z,42.08
2019-05-14T19:46:08.965Z,41.90
2019-05-14T19:51:13.489Z,42.51
2019-05-14T19:56:17.525Z,42.60
2019-05-14T20:01:21.403Z,42.84
2019-05-14T20:06:29.542Z,43.32
2019-05-14T20:11:33.809Z,43.25
2019-05-14T20:16:39.288Z,43.49
2019-05-14T20:21:42.972Z,43.61
2019-05-14T20:26:48.804Z,44.16
2019-05-14T20:31:52.298Z,44.28
2019-05-14T20:36:58.732Z,44.28
2019-05-14T20:42:01.938Z,44.20
2019-05-14T20:47:04.729Z,44.62
2019-05-14T20:52:09.341Z,45.21
2019-05-14T20:57:23.243Z,45.22
2019-05-14T21:02:18.576Z,45.19
2019-05-14T21:07:21.482Z,45.33
2019-05-14T21:12:24.214Z,45.50
2019-05-14T21:17:28.249Z,45.67
2019-05-14T21:22:31.111Z,46.01
2019-05-14T21:27:44.552Z,46.26
2019-05-14T21:32:42.038Z,46.24
2019-05-14T21:37:43.176Z,46.17
2019-05-14T21:42:45.921Z,46.35
2019-05-14T21:47:48.640Z,46.59
2019-05-14T21:52:51.337Z,46.98
2019-05-14T21:57:57.157Z,46.95
2019-05-14T22:02:58.804Z,47.50
2019-05-14T22:08:01.558Z,48.34
2019-05-14T22:13:04.362Z,48.13
2019-05-14T22:18:16.606Z,48.62
2019-05-14T22:23:11.886Z,48.48
2019-05-14T22:28:15.816Z,48.46
2019-05-14T22:33:19.249Z,48.71
2019-05-14T22:38:21.979Z,48.54
2019-05-14T22:43:24.711Z,48.55
2019-05-14T22:48:27.434Z,48.88
2019-05-14T22:53:30.535Z,49.13
2019-05-14T22:58:33.334Z,49.44
2019-05-14T23:03:36.092Z,49.84
2019-05-14T23:08:39.222Z,50.34
2019-05-14T23:13:42.230Z,50.67
2019-05-14T23:18:44.959Z,50.93
2019-05-14T23:23:47.863Z,51.26
2019-05-14T23:28:50.684Z,51.60
2019-05-14T23:33:53.402Z,51.52
2019-05-14T23:38:59.146Z,52.19
2019-05-14T23:44:01.933Z,52.17
2019-05-14T23:49:04.660Z,53.08
2019-05-14T23:54:08.801Z,53.82
2019-05-14T23:59:11.851Z,54.98
